sensor_id;sensor_type;location;lat;lon;timestamp;pressure;altitude;pressure_sealevel;temperature;humidity
44198;BME280;30157;55.512;37.764;2023-05-03T00:00:01;100289.69;;;6.61;52.29
44198;BME280;30157;55.512;37.764;2023-05-03T00:02:36;100259.22;;;6.39;52.50
44198;BME280;30157;55.512;37.764;2023-05-03T00:05:06;100234.03;;;6.26;52.19
44198;BME280;30157;55.512;37.764;2023-05-03T00:07:38;100300.88;;;6.61;52.40
44198;BME280;30157;55.512;37.764;2023-05-03T00:10:05;100294.06;;;6.66;52.02
44198;BME280;30157;55.512;37.764;2023-05-03T00:12:31;100268.94;;;6.54;51.94
44198;BME280;30157;55.512;37.764;2023-05-03T00:14:57;100240.44;;;6.47;51.41
44198;BME280;30157;55.512;37.764;2023-05-03T00:17:22;100236.91;;;6.42;51.61
44198;BME280;30157;55.512;37.764;2023-05-03T00:19:48;100216.97;;;6.33;51.38
44198;BME280;30157;55.512;37.764;2023-05-03T00:22:14;100276.19;;;6.76;51.58
44198;BME280;30157;55.512;37.764;2023-05-03T00:24:40;100287.38;;;6.75;51.63
44198;BME280;30157;55.512;37.764;2023-05-03T00:27:05;100264.69;;;6.56;52.44
44198;BME280;30157;55.512;37.764;2023-05-03T00:29:31;100218.59;;;6.28;52.37
44198;BME280;30157;55.512;37.764;2023-05-03T00:31:57;100266.28;;;6.51;52.35
44198;BME280;30157;55.512;37.764;2023-05-03T00:34:24;100217.44;;;6.13;52.58
44198;BME280;30157;55.512;37.764;2023-05-03T00:36:50;100267.06;;;6.47;52.68
44198;BME280;30157;55.512;37.764;2023-05-03T00:39:16;100232.25;;;6.22;53.05
44198;BME280;30157;55.512;37.764;2023-05-03T00:41:41;100196.69;;;6.05;52.74
44198;BME280;30157;55.512;37.764;2023-05-03T00:44:07;100257.44;;;6.37;52.97
44198;BME280;30157;55.512;37.764;2023-05-03T00:46:33;100203.59;;;6.08;52.95
44198;BME280;30157;55.512;37.764;2023-05-03T00:49:00;100251.34;;;6.33;53.24
44198;BME280;30157;55.512;37.764;2023-05-03T00:51:26;100251.38;;;6.35;53.66
44198;BME280;30157;55.512;37.764;2023-05-03T00:53:52;100249.59;;;6.32;53.57
44198;BME280;30157;55.512;37.764;2023-05-03T00:56:18;100256.47;;;6.30;53.95
44198;BME280;30157;55.512;37.764;2023-05-03T00:58:50;100253.78;;;6.27;53.75
44198;BME280;30157;55.512;37.764;2023-05-03T01:01:16;100247.78;;;6.27;53.83
44198;BME280;30157;55.512;37.764;2023-05-03T01:03:42;100253.94;;;6.35;53.67
44198;BME280;30157;55.512;37.764;2023-05-03T01:06:24;100249.81;;;6.43;54.04
44198;BME280;30157;55.512;37.764;2023-05-03T01:14:27;100242.97;;;6.44;53.99
44198;BME280;30157;55.512;37.764;2023-05-03T01:17:00;100244.69;;;6.45;53.93
44198;BME280;30157;55.512;37.764;2023-05-03T01:25:02;100174.00;;;6.33;52.96
44198;BME280;30157;55.512;37.764;2023-05-03T01:27:32;100206.28;;;6.60;52.45
44198;BME280;30157;55.512;37.764;2023-05-03T01:29:57;100212.44;;;6.68;52.30
44198;BME280;30157;55.512;37.764;2023-05-03T01:32:33;100211.69;;;6.74;52.48
44198;BME280;30157;55.512;37.764;2023-05-03T01:37:52;100236.59;;;6.72;52.63
44198;BME280;30157;55.512;37.764;2023-05-03T01:40:21;100186.41;;;6.53;52.51
44198;BME280;30157;55.512;37.764;2023-05-03T01:42:49;100221.97;;;6.72;52.58
44198;BME280;30157;55.512;37.764;2023-05-03T01:45:16;100222.81;;;6.71;52.54
44198;BME280;30157;55.512;37.764;2023-05-03T01:47:42;100227.09;;;6.69;52.51
44198;BME280;30157;55.512;37.764;2023-05-03T01:50:08;100215.78;;;6.63;52.73
44198;BME280;30157;55.512;37.764;2023-05-03T01:52:34;100209.75;;;6.62;52.77
44198;BME280;30157;55.512;37.764;2023-05-03T01:55:00;100138.53;;;6.20;52.58
44198;BME280;30157;55.512;37.764;2023-05-03T01:57:25;100135.97;;;6.21;52.64
44198;BME280;30157;55.512;37.764;2023-05-03T01:59:51;100154.19;;;6.31;52.79
44198;BME280;30157;55.512;37.764;2023-05-03T02:02:17;100189.72;;;6.47;53.09
44198;BME280;30157;55.512;37.764;2023-05-03T02:04:42;100153.38;;;6.33;52.80
44198;BME280;30157;55.512;37.764;2023-05-03T02:07:08;100213.22;;;6.64;52.69
44198;BME280;30157;55.512;37.764;2023-05-03T02:09:34;100169.09;;;6.47;52.70
44198;BME280;30157;55.512;37.764;2023-05-03T02:12:00;100198.63;;;6.66;53.17
44198;BME280;30157;55.512;37.764;2023-05-03T02:14:26;100193.56;;;6.69;52.67
44198;BME280;30157;55.512;37.764;2023-05-03T02:16:52;100168.47;;;6.62;52.77
44198;BME280;30157;55.512;37.764;2023-05-03T02:19:20;100172.03;;;6.69;52.64
44198;BME280;30157;55.512;37.764;2023-05-03T02:21:46;100167.75;;;6.69;52.52
44198;BME280;30157;55.512;37.764;2023-05-03T02:24:12;100153.16;;;6.71;52.35
44198;BME280;30157;55.512;37.764;2023-05-03T02:26:37;100164.44;;;6.77;52.05
44198;BME280;30157;55.512;37.764;2023-05-03T02:29:03;100189.59;;;6.90;52.40
44198;BME280;30157;55.512;37.764;2023-05-03T02:31:31;100175.81;;;6.88;51.65
44198;BME280;30157;55.512;37.764;2023-05-03T02:33:57;100186.34;;;7.02;51.70
44198;BME280;30157;55.512;37.764;2023-05-03T02:36:24;100193.38;;;7.12;51.84
44198;BME280;30157;55.512;37.764;2023-05-03T02:38:50;100138.88;;;6.92;51.41
44198;BME280;30157;55.512;37.764;2023-05-03T02:41:17;100128.56;;;6.94;51.21
44198;BME280;30157;55.512;37.764;2023-05-03T02:43:43;100196.41;;;7.43;50.98
44198;BME280;30157;55.512;37.764;2023-05-03T02:46:08;100190.50;;;7.53;50.73
44198;BME280;30157;55.512;37.764;2023-05-03T02:48:34;100168.25;;;7.63;50.59
44198;BME280;30157;55.512;37.764;2023-05-03T02:51:01;100182.31;;;7.87;49.96
44198;BME280;30157;55.512;37.764;2023-05-03T02:53:27;100174.00;;;8.13;49.40
44198;BME280;30157;55.512;37.764;2023-05-03T02:55:58;100116.88;;;7.89;49.38
44198;BME280;30157;55.512;37.764;2023-05-03T02:58:24;100170.88;;;8.43;48.91
44198;BME280;30157;55.512;37.764;2023-05-03T03:00:50;100126.69;;;8.20;48.67
44198;BME280;30157;55.512;37.764;2023-05-03T03:03:17;100123.28;;;8.24;49.00
44198;BME280;30157;55.512;37.764;2023-05-03T03:05:43;100165.53;;;8.26;48.68
44198;BME280;30157;55.512;37.764;2023-05-03T03:08:09;100174.06;;;8.19;48.91
44198;BME280;30157;55.512;37.764;2023-05-03T03:10:35;100165.28;;;8.04;49.29
44198;BME280;30157;55.512;37.764;2023-05-03T03:13:02;100177.31;;;8.01;49.52
44198;BME280;30157;55.512;37.764;2023-05-03T03:15:35;100183.38;;;8.03;49.80
44198;BME280;30157;55.512;37.764;2023-05-03T03:18:00;100183.38;;;8.04;49.84
44198;BME280;30157;55.512;37.764;2023-05-03T03:20:28;100104.56;;;7.65;50.29
44198;BME280;30157;55.512;37.764;2023-05-03T03:22:54;100179.19;;;8.14;49.72
44198;BME280;30157;55.512;37.764;2023-05-03T03:25:20;100056.97;;;7.45;49.34
44198;BME280;30157;55.512;37.764;2023-05-03T03:27:46;100116.91;;;7.91;49.36
44198;BME280;30157;55.512;37.764;2023-05-03T03:30:12;100176.72;;;8.25;49.06
44198;BME280;30157;55.512;37.764;2023-05-03T03:32:49;100175.03;;;8.30;49.30
44198;BME280;30157;55.512;37.764;2023-05-03T03:35:24;100188.81;;;8.29;48.98
44198;BME280;30157;55.512;37.764;2023-05-03T03:37:51;100181.16;;;8.38;48.72
44198;BME280;30157;55.512;37.764;2023-05-03T03:40:17;100183.03;;;8.49;49.11
44198;BME280;30157;55.512;37.764;2023-05-03T03:42:46;100166.44;;;8.31;48.95
44198;BME280;30157;55.512;37.764;2023-05-03T03:45:12;100178.63;;;8.41;48.98
44198;BME280;30157;55.512;37.764;2023-05-03T03:47:37;100167.38;;;8.39;48.66
44198;BME280;30157;55.512;37.764;2023-05-03T03:50:04;100181.38;;;8.58;48.70
44198;BME280;30157;55.512;37.764;2023-05-03T03:52:31;100023.69;;;7.74;48.36
44198;BME280;30157;55.512;37.764;2023-05-03T03:54:57;100189.31;;;8.76;48.40
44198;BME280;30157;55.512;37.764;2023-05-03T03:57:22;100127.63;;;8.27;47.99
44198;BME280;30157;55.512;37.764;2023-05-03T03:59:51;100186.72;;;8.79;48.15
44198;BME280;30157;55.512;37.764;2023-05-03T04:02:17;100169.25;;;8.51;48.21
44198;BME280;30157;55.512;37.764;2023-05-03T04:04:42;100187.47;;;8.62;48.59
44198;BME280;30157;55.512;37.764;2023-05-03T04:07:08;100175.28;;;8.52;48.74
44198;BME280;30157;55.512;37.764;2023-05-03T04:09:35;100138.81;;;8.27;48.69
44198;BME280;30157;55.512;37.764;2023-05-03T04:12:01;100189.22;;;8.68;48.66
44198;BME280;30157;55.512;37.764;2023-05-03T04:14:27;100197.88;;;8.70;48.40
44198;BME280;30157;55.512;37.764;2023-05-03T04:16:53;100189.31;;;8.77;48.37
44198;BME280;30157;55.512;37.764;2023-05-03T04:19:19;100194.41;;;8.71;48.73
44198;BME280;30157;55.512;37.764;2023-05-03T04:21:47;100171.06;;;8.62;48.83
44198;BME280;30157;55.512;37.764;2023-05-03T04:24:14;100184.97;;;8.76;49.01
44198;BME280;30157;55.512;37.764;2023-05-03T04:26:41;100158.16;;;8.65;49.34
44198;BME280;30157;55.512;37.764;2023-05-03T04:29:16;100159.81;;;8.55;49.48
44198;BME280;30157;55.512;37.764;2023-05-03T04:31:45;100145.84;;;8.40;49.06
44198;BME280;30157;55.512;37.764;2023-05-03T04:34:13;100181.38;;;8.57;49.92
44198;BME280;30157;55.512;37.764;2023-05-03T04:36:42;100135.25;;;8.16;50.50
44198;BME280;30157;55.512;37.764;2023-05-03T04:39:12;100188.88;;;8.35;51.57
44198;BME280;30157;55.512;37.764;2023-05-03T04:41:39;100162.84;;;8.18;51.60
44198;BME280;30157;55.512;37.764;2023-05-03T04:44:06;100162.03;;;8.22;52.17
44198;BME280;30157;55.512;37.764;2023-05-03T04:46:33;100201.13;;;8.47;52.10
44198;BME280;30157;55.512;37.764;2023-05-03T04:48:58;100160.25;;;8.17;52.47
44198;BME280;30157;55.512;37.764;2023-05-03T04:51:24;100160.22;;;8.12;53.43
44198;BME280;30157;55.512;37.764;2023-05-03T04:53:52;100154.81;;;7.89;55.49
44198;BME280;30157;55.512;37.764;2023-05-03T04:56:21;100215.31;;;8.06;55.51
44198;BME280;30157;55.512;37.764;2023-05-03T04:58:52;100225.44;;;7.91;57.18
44198;BME280;30157;55.512;37.764;2023-05-03T05:01:19;100217.44;;;7.72;58.41
44198;BME280;30157;55.512;37.764;2023-05-03T05:03:51;100231.44;;;7.87;57.68
44198;BME280;30157;55.512;37.764;2023-05-03T05:06:21;100214.28;;;7.94;57.65
44198;BME280;30157;55.512;37.764;2023-05-03T05:08:47;100209.25;;;8.07;56.80
44198;BME280;30157;55.512;37.764;2023-05-03T05:11:14;100208.41;;;8.05;55.65
44198;BME280;30157;55.512;37.764;2023-05-03T05:13:40;100151.28;;;7.82;54.80
44198;BME280;30157;55.512;37.764;2023-05-03T05:16:06;100222.59;;;8.41;54.90
44198;BME280;30157;55.512;37.764;2023-05-03T05:18:33;100200.28;;;8.50;54.59
44198;BME280;30157;55.512;37.764;2023-05-03T05:21:02;100207.34;;;8.71;53.74
44198;BME280;30157;55.512;37.764;2023-05-03T05:23:29;100201.34;;;8.73;53.08
44198;BME280;30157;55.512;37.764;2023-05-03T05:25:55;100182.25;;;8.59;53.46
44198;BME280;30157;55.512;37.764;2023-05-03T05:28:27;100182.38;;;8.74;52.54
44198;BME280;30157;55.512;37.764;2023-05-03T05:30:53;100197.31;;;9.05;52.52
44198;BME280;30157;55.512;37.764;2023-05-03T05:33:20;100076.75;;;8.26;51.30
44198;BME280;30157;55.512;37.764;2023-05-03T05:35:47;100151.38;;;8.81;52.24
44198;BME280;30157;55.512;37.764;2023-05-03T05:38:15;100172.03;;;8.78;53.45
44198;BME280;30157;55.512;37.764;2023-05-03T05:40:42;100219.53;;;8.83;52.64
44198;BME280;30157;55.512;37.764;2023-05-03T05:43:08;100226.53;;;8.90;53.33
44198;BME280;30157;55.512;37.764;2023-05-03T05:45:37;100229.13;;;8.91;53.00
44198;BME280;30157;55.512;37.764;2023-05-03T05:48:04;100171.03;;;8.57;53.19
44198;BME280;30157;55.512;37.764;2023-05-03T05:50:31;100154.66;;;8.60;53.04
44198;BME280;30157;55.512;37.764;2023-05-03T05:53:01;100170.41;;;8.86;52.42
44198;BME280;30157;55.512;37.764;2023-05-03T05:55:31;100217.19;;;9.14;52.34
44198;BME280;30157;55.512;37.764;2023-05-03T05:57:58;100213.84;;;9.25;52.03
44198;BME280;30157;55.512;37.764;2023-05-03T06:00:32;100179.31;;;9.28;51.91
44198;BME280;30157;55.512;37.764;2023-05-03T06:03:00;100232.28;;;9.77;52.17
44198;BME280;30157;55.512;37.764;2023-05-03T06:05:26;100215.97;;;9.99;51.77
44198;BME280;30157;55.512;37.764;2023-05-03T06:07:52;100171.00;;;11.72;47.67
44198;BME280;30157;55.512;37.764;2023-05-03T06:10:20;100166.88;;;12.86;45.47
44198;BME280;30157;55.512;37.764;2023-05-03T06:12:50;100218.69;;;13.17;45.30
44198;BME280;30157;55.512;37.764;2023-05-03T06:15:20;100223.81;;;13.26;43.56
44198;BME280;30157;55.512;37.764;2023-05-03T06:17:46;100188.00;;;12.41;44.78
44198;BME280;30157;55.512;37.764;2023-05-03T06:20:12;100217.72;;;12.03;45.28
44198;BME280;30157;55.512;37.764;2023-05-03T06:22:39;100178.97;;;10.99;46.90
44198;BME280;30157;55.512;37.764;2023-05-03T06:25:05;100157.31;;;10.52;47.80
44198;BME280;30157;55.512;37.764;2023-05-03T06:27:32;100213.56;;;10.63;48.10
44198;BME280;30157;55.512;37.764;2023-05-03T06:29:58;100188.38;;;10.29;48.61
44198;BME280;30157;55.512;37.764;2023-05-03T06:32:24;100200.44;;;10.16;49.08
44198;BME280;30157;55.512;37.764;2023-05-03T06:34:50;100227.38;;;10.45;49.13
44198;BME280;30157;55.512;37.764;2023-05-03T06:37:17;100166.72;;;10.12;49.83
44198;BME280;30157;55.512;37.764;2023-05-03T06:39:43;100221.25;;;10.33;49.32
44198;BME280;30157;55.512;37.764;2023-05-03T06:42:09;100242.13;;;10.59;49.37
44198;BME280;30157;55.512;37.764;2023-05-03T06:44:38;100230.03;;;10.85;48.87
44198;BME280;30157;55.512;37.764;2023-05-03T06:47:04;100172.03;;;11.00;47.25
44198;BME280;30157;55.512;37.764;2023-05-03T06:49:31;100196.13;;;11.74;46.92
44198;BME280;30157;55.512;37.764;2023-05-03T06:51:57;100178.81;;;11.63;47.02
44198;BME280;30157;55.512;37.764;2023-05-03T06:54:22;100207.44;;;11.67;47.15
44198;BME280;30157;55.512;37.764;2023-05-03T06:56:48;100164.22;;;11.23;47.06
44198;BME280;30157;55.512;37.764;2023-05-03T06:59:15;100195.38;;;11.26;47.35
44198;BME280;30157;55.512;37.764;2023-05-03T07:01:40;100232.59;;;11.37;48.21
44198;BME280;30157;55.512;37.764;2023-05-03T07:04:06;100175.47;;;11.23;47.93
44198;BME280;30157;55.512;37.764;2023-05-03T07:06:32;100247.25;;;11.75;46.81
44198;BME280;30157;55.512;37.764;2023-05-03T07:08:58;100243.75;;;11.92;47.03
44198;BME280;30157;55.512;37.764;2023-05-03T07:11:23;100255.09;;;11.60;47.37
44198;BME280;30157;55.512;37.764;2023-05-03T07:13:53;100262.03;;;11.61;48.55
44198;BME280;30157;55.512;37.764;2023-05-03T07:16:19;100253.41;;;11.50;47.78
44198;BME280;30157;55.512;37.764;2023-05-03T07:18:46;100259.44;;;11.41;48.49
44198;BME280;30157;55.512;37.764;2023-05-03T07:21:12;100267.25;;;11.49;48.45
44198;BME280;30157;55.512;37.764;2023-05-03T07:23:38;100263.78;;;11.45;48.56
44198;BME280;30157;55.512;37.764;2023-05-03T07:26:05;100274.16;;;11.71;47.53
44198;BME280;30157;55.512;37.764;2023-05-03T07:28:30;100246.38;;;11.87;47.28
44198;BME280;30157;55.512;37.764;2023-05-03T07:30:56;100213.47;;;11.66;46.97
44198;BME280;30157;55.512;37.764;2023-05-03T07:33:22;100268.88;;;12.02;46.26
44198;BME280;30157;55.512;37.764;2023-05-03T07:35:48;100265.41;;;12.02;46.78
44198;BME280;30157;55.512;37.764;2023-05-03T07:38:15;100240.38;;;11.56;46.92
44198;BME280;30157;55.512;37.764;2023-05-03T07:40:41;100274.19;;;11.33;48.59
44198;BME280;30157;55.512;37.764;2023-05-03T07:43:08;100262.94;;;11.35;49.54
44198;BME280;30157;55.512;37.764;2023-05-03T07:45:37;100248.22;;;11.31;49.72
44198;BME280;30157;55.512;37.764;2023-05-03T07:48:04;100209.22;;;10.52;51.16
44198;BME280;30157;55.512;37.764;2023-05-03T07:50:30;100280.22;;;10.74;51.42
44198;BME280;30157;55.512;37.764;2023-05-03T07:52:56;100287.16;;;10.92;51.34
44198;BME280;30157;55.512;37.764;2023-05-03T07:55:23;100289.78;;;11.34;51.24
44198;BME280;30157;55.512;37.764;2023-05-03T07:57:49;100249.91;;;11.55;49.59
44198;BME280;30157;55.512;37.764;2023-05-03T08:00:16;100320.00;;;12.13;49.74
44198;BME280;30157;55.512;37.764;2023-05-03T08:02:42;100309.66;;;11.99;50.24
44198;BME280;30157;55.512;37.764;2023-05-03T08:05:09;100333.91;;;11.88;50.94
44198;BME280;30157;55.512;37.764;2023-05-03T08:07:38;100307.09;;;11.51;51.88
44198;BME280;30157;55.512;37.764;2023-05-03T08:10:04;100322.66;;;10.92;52.83
44198;BME280;30157;55.512;37.764;2023-05-03T08:12:30;100327.81;;;10.75;53.86
44198;BME280;30157;55.512;37.764;2023-05-03T08:14:56;100270.66;;;10.50;53.89
44198;BME280;30157;55.512;37.764;2023-05-03T08:17:22;100320.03;;;10.73;54.02
44198;BME280;30157;55.512;37.764;2023-05-03T08:19:49;100331.31;;;10.88;55.18
44198;BME280;30157;55.512;37.764;2023-05-03T08:22:16;100339.03;;;10.63;56.14
44198;BME280;30157;55.512;37.764;2023-05-03T08:24:42;100330.38;;;10.59;56.72
44198;BME280;30157;55.512;37.764;2023-05-03T08:27:08;100300.03;;;10.45;56.52
44198;BME280;30157;55.512;37.764;2023-05-03T08:29:35;100361.53;;;10.61;57.03
44198;BME280;30157;55.512;37.764;2023-05-03T08:32:04;100364.09;;;10.52;56.62
44198;BME280;30157;55.512;37.764;2023-05-03T08:34:30;100289.31;;;9.73;56.96
44198;BME280;30157;55.512;37.764;2023-05-03T08:36:56;100304.84;;;9.73;57.73
44198;BME280;30157;55.512;37.764;2023-05-03T08:39:22;100364.69;;;10.07;58.13
44198;BME280;30157;55.512;37.764;2023-05-03T08:41:54;100360.16;;;9.79;60.79
44198;BME280;30157;55.512;37.764;2023-05-03T08:44:21;100351.53;;;9.81;60.28
44198;BME280;30157;55.512;37.764;2023-05-03T08:46:50;100310.66;;;9.41;61.75
44198;BME280;30157;55.512;37.764;2023-05-03T08:49:19;100350.47;;;9.51;64.71
44198;BME280;30157;55.512;37.764;2023-05-03T08:51:46;100346.78;;;9.26;69.29
44198;BME280;30157;55.512;37.764;2023-05-03T08:54:14;100346.34;;;8.80;71.23
44198;BME280;30157;55.512;37.764;2023-05-03T08:56:42;100214.16;;;7.84;74.19
44198;BME280;30157;55.512;37.764;2023-05-03T08:59:12;100323.97;;;8.85;72.82
44198;BME280;30157;55.512;37.764;2023-05-03T09:01:39;100344.28;;;9.35;71.09
44198;BME280;30157;55.512;37.764;2023-05-03T09:04:06;100354.94;;;9.69;69.99
44198;BME280;30157;55.512;37.764;2023-05-03T09:06:32;100343.75;;;9.78;68.28
44198;BME280;30157;55.512;37.764;2023-05-03T09:08:59;100337.72;;;9.79;68.41
44198;BME280;30157;55.512;37.764;2023-05-03T09:11:27;100370.66;;;9.94;68.03
44198;BME280;30157;55.512;37.764;2023-05-03T09:14:16;100309.19;;;9.76;66.77
44198;BME280;30157;55.512;37.764;2023-05-03T09:16:44;100362.97;;;10.09;66.22
44198;BME280;30157;55.512;37.764;2023-05-03T09:19:12;100323.09;;;9.89;66.66
44198;BME280;30157;55.512;37.764;2023-05-03T09:21:39;100301.38;;;9.73;65.63
44198;BME280;30157;55.512;37.764;2023-05-03T09:24:18;100345.50;;;9.78;65.59
44198;BME280;30157;55.512;37.764;2023-05-03T09:26:46;100342.84;;;9.74;67.25
44198;BME280;30157;55.512;37.764;2023-05-03T09:32:01;100383.69;;;10.05;66.46
44198;BME280;30157;55.512;37.764;2023-05-03T09:34:27;100329.81;;;9.61;67.19
44198;BME280;30157;55.512;37.764;2023-05-03T09:36:53;100362.75;;;9.74;68.28
44198;BME280;30157;55.512;37.764;2023-05-03T09:39:19;100386.06;;;9.74;69.06
44198;BME280;30157;55.512;37.764;2023-05-03T09:41:45;100377.31;;;9.59;70.16
44198;BME280;30157;55.512;37.764;2023-05-03T09:44:11;100370.44;;;9.62;69.88
44198;BME280;30157;55.512;37.764;2023-05-03T09:46:37;100386.97;;;9.76;70.24
44198;BME280;30157;55.512;37.764;2023-05-03T09:49:03;100354.13;;;9.77;70.31
44198;BME280;30157;55.512;37.764;2023-05-03T09:51:30;100373.25;;;9.97;71.24
44198;BME280;30157;55.512;37.764;2023-05-03T09:53:59;100357.56;;;9.75;70.74
44198;BME280;30157;55.512;37.764;2023-05-03T09:56:25;100371.44;;;9.84;71.04
44198;BME280;30157;55.512;37.764;2023-05-03T09:58:54;100388.94;;;10.17;70.13
44198;BME280;30157;55.512;37.764;2023-05-03T10:01:20;100320.78;;;10.38;68.75
44198;BME280;30157;55.512;37.764;2023-05-03T10:03:50;100343.47;;;11.27;66.14
44198;BME280;30157;55.512;37.764;2023-05-03T10:09:35;100373.81;;;12.09;63.19
44198;BME280;30157;55.512;37.764;2023-05-03T10:11:51;100381.53;;;12.35;63.65
44198;BME280;30157;55.512;37.764;2023-05-03T10:14:17;100379.84;;;12.14;62.99
44198;BME280;30157;55.512;37.764;2023-05-03T10:16:46;100374.66;;;12.00;64.42
44198;BME280;30157;55.512;37.764;2023-05-03T10:19:18;100375.53;;;12.08;64.74
44198;BME280;30157;55.512;37.764;2023-05-03T10:22:10;100353.53;;;12.88;62.66
44198;BME280;30157;55.512;37.764;2023-05-03T10:25:06;100357.47;;;13.48;59.82
44198;BME280;30157;55.512;37.764;2023-05-03T10:27:40;100368.00;;;13.34;58.43
44198;BME280;30157;55.512;37.764;2023-05-03T10:30:06;100362.22;;;12.83;60.31
44198;BME280;30157;55.512;37.764;2023-05-03T10:32:37;100314.56;;;12.71;60.23
44198;BME280;30157;55.512;37.764;2023-05-03T10:35:11;100361.22;;;14.86;56.65
44198;BME280;30157;55.512;37.764;2023-05-03T10:37:40;100332.88;;;16.61;50.58
44198;BME280;30157;55.512;37.764;2023-05-03T10:42:37;100360.97;;;16.98;48.89
44198;BME280;30157;55.512;37.764;2023-05-03T10:45:04;100214.25;;;15.71;48.63
44198;BME280;30157;55.512;37.764;2023-05-03T10:47:33;100373.66;;;16.32;48.69
44198;BME280;30157;55.512;37.764;2023-05-03T10:55:19;100337.38;;;15.63;50.90
44198;BME280;30157;55.512;37.764;2023-05-03T10:57:48;100299.81;;;14.55;52.53
44198;BME280;30157;55.512;37.764;2023-05-03T11:00:18;100339.00;;;15.18;51.16
44198;BME280;30157;55.512;37.764;2023-05-03T11:03:02;100350.16;;;15.82;49.79
44198;BME280;30157;55.512;37.764;2023-05-03T11:05:29;100333.56;;;16.28;48.99
44198;BME280;30157;55.512;37.764;2023-05-03T11:08:24;100340.78;;;17.38;45.88
44198;BME280;30157;55.512;37.764;2023-05-03T11:10:58;100349.19;;;18.20;43.19
44198;BME280;30157;55.512;37.764;2023-05-03T11:13:26;100340.31;;;19.67;39.21
44198;BME280;30157;55.512;37.764;2023-05-03T11:15:53;100342.38;;;19.84;39.84
44198;BME280;30157;55.512;37.764;2023-05-03T11:18:19;100337.44;;;18.02;43.04
44198;BME280;30157;55.512;37.764;2023-05-03T11:20:45;100324.19;;;15.70;46.26
44198;BME280;30157;55.512;37.764;2023-05-03T11:23:11;100335.81;;;15.52;47.32
44198;BME280;30157;55.512;37.764;2023-05-03T11:25:37;100332.44;;;14.90;48.65
44198;BME280;30157;55.512;37.764;2023-05-03T11:28:03;100343.94;;;15.88;44.99
44198;BME280;30157;55.512;37.764;2023-05-03T11:30:32;100333.38;;;16.38;44.00
44198;BME280;30157;55.512;37.764;2023-05-03T11:33:00;100334.03;;;16.48;43.77
44198;BME280;30157;55.512;37.764;2023-05-03T11:35:28;100324.09;;;15.74;45.02
44198;BME280;30157;55.512;37.764;2023-05-03T11:37:54;100326.81;;;15.68;45.90
44198;BME280;30157;55.512;37.764;2023-05-03T11:40:20;100252.41;;;15.36;45.13
44198;BME280;30157;55.512;37.764;2023-05-03T11:43:04;100327.25;;;16.79;44.06
44198;BME280;30157;55.512;37.764;2023-05-03T11:45:38;100314.47;;;16.25;45.11
44198;BME280;30157;55.512;37.764;2023-05-03T11:48:05;100288.97;;;15.39;46.38
44198;BME280;30157;55.512;37.764;2023-05-03T11:50:52;100320.47;;;15.32;47.18
44198;BME280;30157;55.512;37.764;2023-05-03T11:53:24;100332.44;;;15.45;45.77
44198;BME280;30157;55.512;37.764;2023-05-03T11:55:52;100327.03;;;15.03;47.09
44198;BME280;30157;55.512;37.764;2023-05-03T11:58:25;100291.41;;;14.94;47.47
44198;BME280;30157;55.512;37.764;2023-05-03T12:00:53;100309.25;;;14.66;47.03
44198;BME280;30157;55.512;37.764;2023-05-03T12:03:27;100297.25;;;15.11;46.99
44198;BME280;30157;55.512;37.764;2023-05-03T12:05:54;100283.84;;;15.82;43.95
44198;BME280;30157;55.512;37.764;2023-05-03T12:08:21;100266.63;;;16.15;43.73
44198;BME280;30157;55.512;37.764;2023-05-03T12:10:52;100246.94;;;15.49;44.10
44198;BME280;30157;55.512;37.764;2023-05-03T12:15:57;100349.06;;;15.41;46.73
44198;BME280;30157;55.512;37.764;2023-05-03T12:18:26;100335.78;;;15.53;45.36
44198;BME280;30157;55.512;37.764;2023-05-03T12:20:56;100278.38;;;15.95;44.26
44198;BME280;30157;55.512;37.764;2023-05-03T12:23:23;100346.25;;;17.30;42.24
44198;BME280;30157;55.512;37.764;2023-05-03T12:25:50;100344.78;;;18.52;40.30
44198;BME280;30157;55.512;37.764;2023-05-03T12:28:18;100308.97;;;17.52;41.27
44198;BME280;30157;55.512;37.764;2023-05-03T12:30:45;100297.69;;;18.14;40.18
44198;BME280;30157;55.512;37.764;2023-05-03T12:33:10;100349.53;;;17.38;41.03
44198;BME280;30157;55.512;37.764;2023-05-03T12:35:36;100332.97;;;16.16;44.04
44198;BME280;30157;55.512;37.764;2023-05-03T12:38:03;100364.84;;;15.38;45.82
44198;BME280;30157;55.512;37.764;2023-05-03T12:40:29;100356.88;;;14.88;47.38
44198;BME280;30157;55.512;37.764;2023-05-03T12:42:55;100347.63;;;14.57;48.00
44198;BME280;30157;55.512;37.764;2023-05-03T12:45:21;100352.13;;;14.48;48.78
44198;BME280;30157;55.512;37.764;2023-05-03T12:47:47;100296.91;;;14.05;48.67
44198;BME280;30157;55.512;37.764;2023-05-03T12:50:12;100354.13;;;14.24;48.96
44198;BME280;30157;55.512;37.764;2023-05-03T12:52:38;100302.09;;;14.10;48.79
44198;BME280;30157;55.512;37.764;2023-05-03T12:55:05;100287.41;;;14.03;48.83
44198;BME280;30157;55.512;37.764;2023-05-03T12:57:32;100343.34;;;14.53;48.78
44198;BME280;30157;55.512;37.764;2023-05-03T13:00:00;100290.25;;;14.53;48.24
44198;BME280;30157;55.512;37.764;2023-05-03T13:02:30;100329.13;;;14.77;49.01
44198;BME280;30157;55.512;37.764;2023-05-03T13:04:56;100337.78;;;14.81;48.76
44198;BME280;30157;55.512;37.764;2023-05-03T13:07:26;100325.81;;;14.65;48.41
44198;BME280;30157;55.512;37.764;2023-05-03T13:09:56;100347.22;;;14.93;48.72
44198;BME280;30157;55.512;37.764;2023-05-03T13:12:22;100355.28;;;14.76;48.61
44198;BME280;30157;55.512;37.764;2023-05-03T13:14:50;100333.09;;;14.39;48.91
44198;BME280;30157;55.512;37.764;2023-05-03T13:17:16;100313.56;;;13.95;49.74